Terminal Aerodrome Forecast
Issued by NWS Duluth, MN

Home | Current Version | Previous Version | Text Only | Print | Product List | Glossary On
Versions: 1 2 3 4 5 6 7 8 9 10 11 12 13 14 15
766
FTUS43 KDLH 121134
TAFINL
TAF
KINL 121134Z 1212/1312 31011KT P6SM FEW015
      TEMPO 1212/1214 4SM HZ SCT012
     FM121600 31011G17KT P6SM SCT020
     FM130000 30008KT P6SM SKC
     FM131000 VRB03KT P6SM SKC=

USA.gov is the U.S. government's official web portal to all federal, state and local government web resources and services.